Time;durP1;ratioP1;P1;durP2;ratioP2;P2;SDS_P1;SDS_P2;PMS_P1;PMS_P2;Temp;Humidity;BMP_temperature;BMP_pressure;BME280_temperature;BME280_humidity;BME280_pressure;Samples;Min_cycle;Max_cycle;Signal;HPM_P1;HPM_P2
2021/05/15 00:01:26;;;;;;;1.23;0.34;;;;;;;9.68;85.32;98631.94;2030484;77;21938;-71
2021/05/15 00:04:26;;;;;;;1.41;0.43;;;;;;;9.71;84.99;98633.69;2032285;79;20181;-71
2021/05/15 00:07:26;;;;;;;0.31;0.31;;;;;;;9.66;84.80;98628.53;2035868;79;20597;-72
2021/05/15 00:10:27;;;;;;;0.61;0.50;;;;;;;9.66;84.61;98625.94;2032603;79;20300;-71
2021/05/15 00:13:27;;;;;;;3.11;0.40;;;;;;;9.67;84.30;98625.91;2033217;79;21041;-72
2021/05/15 00:16:28;;;;;;;0.59;0.40;;;;;;;9.71;84.13;98621.56;2029352;76;20182;-72
2021/05/15 00:19:28;;;;;;;0.64;0.57;;;;;;;9.72;83.99;98619.84;2028134;79;20158;-72
2021/05/15 00:22:29;;;;;;;2.97;1.17;;;;;;;9.68;83.98;98616.41;2027555;79;20194;-71
2021/05/15 00:25:29;;;;;;;0.40;0.40;;;;;;;9.66;84.20;98610.38;2027247;80;20182;-72
2021/05/15 00:28:30;;;;;;;1.43;0.50;;;;;;;9.67;83.88;98606.91;2027834;79;20272;-71
2021/05/15 00:31:31;;;;;;;2.89;0.96;;;;;;;9.64;83.79;98610.41;2028715;79;22132;-71
2021/05/15 00:34:31;;;;;;;0.50;0.50;;;;;;;9.58;84.21;98607.91;2032463;79;20169;-71
2021/05/15 00:37:31;;;;;;;0.50;0.43;;;;;;;9.58;84.36;98614.81;2032097;79;20241;-72
2021/05/15 00:40:32;;;;;;;0.40;0.40;;;;;;;9.54;84.41;98611.41;2032292;79;20193;-71
2021/05/15 00:43:32;;;;;;;0.97;0.50;;;;;;;9.47;84.41;98608.91;2032139;79;20206;-72
2021/05/15 00:46:32;;;;;;;0.40;0.40;;;;;;;9.44;84.10;98606.34;2028297;77;20463;-71
2021/05/15 00:49:33;;;;;;;0.56;0.50;;;;;;;9.38;84.03;98609.91;2026822;80;20218;-71
2021/05/15 00:52:34;;;;;;;0.43;0.40;;;;;;;9.32;84.09;98605.63;2027520;79;20230;-71
2021/05/15 00:55:36;;;;;;;0.96;0.59;;;;;;;9.27;83.99;98604.81;2026929;79;20178;-71
2021/05/15 00:58:40;;;;;;;0.95;0.50;;;;;;;9.23;84.17;98603.16;2030514;79;20214;-72
2021/05/15 01:01:40;;;;;;;0.43;0.43;;;;;;;9.22;84.69;98605.78;2029107;76;20202;-71
2021/05/15 01:04:40;;;;;;;0.86;0.50;;;;;;;9.23;84.83;98600.56;2035222;79;20193;-72
2021/05/15 01:07:46;;;;;;;0.56;0.50;;;;;;;9.20;84.96;98603.19;2031559;79;20225;-72
2021/05/15 01:10:46;;;;;;;0.45;0.45;;;;;;;9.20;84.96;98599.75;2035217;79;20162;-71
2021/05/15 01:13:57;;;;;;;0.60;0.53;;;;;;;9.22;85.00;98601.44;2031662;79;20206;-72
2021/05/15 01:16:57;;;;;;;0.50;0.50;;;;;;;9.18;84.88;98604.94;2028163;77;21839;-72
2021/05/15 01:19:57;;;;;;;2.43;0.70;;;;;;;9.20;84.92;98599.75;2027855;79;20202;-72
2021/05/15 01:22:59;;;;;;;3.29;0.60;;;;;;;9.08;84.91;98609.38;2031073;79;21077;-71
2021/05/15 01:26:11;;;;;;;0.85;0.60;;;;;;;9.04;85.32;98614.59;2032143;79;20675;-71
2021/05/15 01:29:11;;;;;;;1.31;0.59;;;;;;;9.05;85.40;98609.41;2027920;79;20678;-72
2021/05/15 01:32:12;;;;;;;0.93;0.50;;;;;;;9.07;85.63;98609.38;2030252;76;20982;-72
2021/05/15 01:35:15;;;;;;;0.50;0.50;;;;;;;9.10;86.02;98614.53;2033563;79;20685;-72
2021/05/15 01:38:15;;;;;;;2.10;0.80;;;;;;;9.17;86.01;98611.00;2036019;79;20605;-72
2021/05/15 01:41:17;;;;;;;2.81;0.50;;;;;;;9.24;86.04;98615.22;2036245;79;20182;-72
2021/05/15 01:44:18;;;;;;;1.99;0.50;;;;;;;9.25;85.98;98611.75;2035565;79;20197;-72
2021/05/15 01:47:18;;;;;;;1.97;0.60;;;;;;;9.25;85.97;98619.53;2029285;77;20170;-72
2021/05/15 01:50:19;;;;;;;0.49;0.47;;;;;;;9.28;85.91;98606.53;2030669;79;20170;-72
2021/05/15 01:53:19;;;;;;;2.34;0.51;;;;;;;9.29;85.74;98602.22;2028183;79;20622;-72
2021/05/15 01:56:23;;;;;;;0.94;0.60;;;;;;;9.28;85.26;98598.78;2030724;79;20195;-72
2021/05/15 01:59:23;;;;;;;0.71;0.50;;;;;;;9.21;84.90;98596.28;2027398;79;20218;-72
2021/05/15 02:02:23;;;;;;;0.60;0.50;;;;;;;9.16;85.08;98596.34;2032830;77;20891;-72
2021/05/15 02:05:24;;;;;;;0.50;0.50;;;;;;;9.17;85.22;98598.06;2034182;79;20195;-72
2021/05/15 02:08:24;;;;;;;0.53;0.53;;;;;;;9.19;85.27;98596.31;2033827;79;20259;-72
2021/05/15 02:11:26;;;;;;;0.50;0.50;;;;;;;9.20;85.28;98594.56;2034139;79;20275;-72
2021/05/15 02:14:26;;;;;;;0.69;0.54;;;;;;;9.22;85.19;98590.22;2037312;79;20205;-72
2021/05/15 02:17:27;;;;;;;1.29;0.79;;;;;;;9.23;85.32;98584.16;2029067;79;24830;-72
2021/05/15 02:20:27;;;;;;;1.14;0.60;;;;;;;9.20;85.05;98586.81;2028551;79;20767;-71
2021/05/15 02:23:28;;;;;;;0.86;0.56;;;;;;;9.17;85.07;98581.66;2032939;79;20280;-72
2021/05/15 02:26:28;;;;;;;1.40;0.74;;;;;;;9.18;85.29;98591.16;2028560;79;20167;-71
2021/05/15 02:29:28;;;;;;;0.64;0.64;;;;;;;9.14;85.35;98586.84;2028761;79;20194;-71
2021/05/15 02:32:29;;;;;;;0.66;0.66;;;;;;;9.15;85.47;98588.56;2032366;77;20195;-72
2021/05/15 02:35:29;;;;;;;1.27;0.80;;;;;;;9.12;85.57;98592.06;2037423;79;20364;-73
2021/05/15 02:38:30;;;;;;;1.19;0.80;;;;;;;9.15;85.50;98576.47;2037128;79;20207;-71
2021/05/15 02:41:30;;;;;;;3.33;0.77;;;;;;;9.20;85.31;98582.47;2033899;79;20189;-72
2021/05/15 02:44:30;;;;;;;1.36;0.70;;;;;;;9.23;85.20;98579.00;2037606;79;20296;-72
2021/05/15 02:47:31;;;;;;;0.67;0.67;;;;;;;9.25;85.04;98580.69;2028579;77;22817;-72
2021/05/15 02:50:32;;;;;;;1.59;0.80;;;;;;;9.26;84.96;98577.22;2028636;79;20329;-71
2021/05/15 02:53:32;;;;;;;2.09;0.80;;;;;;;9.22;85.07;98578.13;2032436;79;20251;-72
2021/05/15 02:56:34;;;;;;;2.09;0.74;;;;;;;9.24;85.06;98580.69;2028716;79;20925;-72
2021/05/15 02:59:35;;;;;;;3.16;0.70;;;;;;;9.23;85.10;98586.75;2029215;79;20174;-72
2021/05/15 03:02:35;;;;;;;0.90;0.90;;;;;;;9.22;85.25;98580.72;2032403;76;20202;-72
2021/05/15 03:05:36;;;;;;;1.49;1.11;;;;;;;9.23;85.36;98579.00;2032423;79;20181;-72
2021/05/15 03:08:36;;;;;;;1.67;0.70;;;;;;;9.26;85.39;98576.34;2036904;79;20174;-71
2021/05/15 03:11:37;;;;;;;2.01;0.66;;;;;;;9.26;85.63;98578.94;2033889;79;20193;-71
2021/05/15 03:14:38;;;;;;;1.99;0.83;;;;;;;9.26;85.72;98572.03;2035808;79;20208;-71
2021/05/15 03:17:43;;;;;;;1.73;1.11;;;;;;;9.26;85.87;98560.81;2032030;77;20558;-72
2021/05/15 03:20:44;;;;;;;0.96;0.96;;;;;;;9.24;85.74;98554.81;2032168;79;20209;-71
2021/05/15 03:23:44;;;;;;;1.76;1.01;;;;;;;9.22;85.89;98554.81;2036483;79;20206;-71
2021/05/15 03:26:44;;;;;;;1.59;0.99;;;;;;;9.20;85.95;98554.00;2032671;79;20170;-71
2021/05/15 03:29:45;;;;;;;2.50;1.00;;;;;;;9.21;85.64;98563.47;2033166;79;20287;-72
2021/05/15 03:32:45;;;;;;;1.54;0.90;;;;;;;9.23;85.58;98556.53;2026356;77;24053;-72
2021/05/15 03:35:46;;;;;;;1.43;1.00;;;;;;;9.23;85.94;98555.69;2027473;79;20250;-72
2021/05/15 03:38:46;;;;;;;2.89;1.30;;;;;;;9.26;85.98;98566.00;2027885;79;20929;-71
2021/05/15 03:41:47;;;;;;;2.83;0.93;;;;;;;9.29;85.86;98561.63;2027352;79;20278;-71
2021/05/15 03:44:48;;;;;;;1.27;1.17;;;;;;;9.29;85.40;98563.38;2027917;79;20224;-72
2021/05/15 03:47:48;;;;;;;2.09;1.31;;;;;;;9.27;85.16;98560.78;2032186;79;20473;-71
2021/05/15 03:50:53;;;;;;;2.01;1.27;;;;;;;9.25;85.10;98565.13;2032292;79;20271;-72
2021/05/15 03:53:54;;;;;;;2.70;1.17;;;;;;;9.27;85.10;98565.13;2032594;79;20193;-72
2021/05/15 03:56:54;;;;;;;3.19;1.39;;;;;;;9.28;85.16;98559.91;2032511;79;20190;-71
2021/05/15 03:59:54;;;;;;;1.89;1.74;;;;;;;9.27;84.96;98563.38;2036295;79;20190;-71
2021/05/15 04:02:54;;;;;;;3.17;2.11;;;;;;;9.29;85.00;98566.81;2026494;77;20688;-71
2021/05/15 04:05:55;;;;;;;2.23;1.90;;;;;;;9.34;84.88;98564.19;2027393;79;20199;-71
2021/05/15 04:08:55;;;;;;;1.54;1.44;;;;;;;9.38;84.59;98565.84;2027445;79;20167;-70
2021/05/15 04:11:56;;;;;;;2.69;1.60;;;;;;;9.39;84.47;98570.16;2026960;79;20182;-71
2021/05/15 04:18:10;;;;;;;1.61;1.51;;;;;;;9.37;84.91;98553.78;2026299;77;22361;-71
2021/05/15 04:21:11;;;;;;;1.62;1.49;;;;;;;9.36;84.88;98549.47;2031502;79;20210;-72
2021/05/15 04:24:11;;;;;;;1.83;1.73;;;;;;;9.37;84.99;98552.03;2027011;79;20235;-71
2021/05/15 04:27:12;;;;;;;1.97;1.77;;;;;;;9.39;84.68;98547.69;2030946;79;20841;-71
2021/05/15 04:30:13;;;;;;;3.40;2.13;;;;;;;9.41;84.60;98555.44;2026858;77;20297;-72
2021/05/15 04:33:14;;;;;;;2.07;1.87;;;;;;;9.43;84.59;98558.88;2032469;79;20201;-71
2021/05/15 04:36:14;;;;;;;3.00;1.96;;;;;;;9.40;84.78;98548.53;2032357;79;21012;-72
2021/05/15 04:39:15;;;;;;;2.51;2.13;;;;;;;9.43;85.44;98542.47;2032677;79;20299;-72
2021/05/15 04:42:16;;;;;;;2.00;1.84;;;;;;;9.46;85.65;98542.41;2032900;79;20189;-71
2021/05/15 04:45:16;;;;;;;2.49;1.96;;;;;;;9.49;85.81;98537.19;2031100;77;20169;-71
2021/05/15 04:48:16;;;;;;;2.43;1.41;;;;;;;9.49;85.77;98543.22;2027190;79;20200;-71
2021/05/15 04:51:17;;;;;;;4.17;1.90;;;;;;;9.49;85.91;98542.38;2026919;79;20182;-71
2021/05/15 04:54:17;;;;;;;2.70;1.54;;;;;;;9.42;85.76;98544.19;2027438;79;20228;-71
2021/05/15 04:57:18;;;;;;;1.73;1.63;;;;;;;9.46;85.79;98543.28;2028278;79;20192;-71
2021/05/15 05:00:19;;;;;;;1.61;1.51;;;;;;;9.47;85.52;98547.56;2026870;76;20481;-72
2021/05/15 05:03:20;;;;;;;2.20;1.73;;;;;;;9.49;85.55;98550.16;2036786;79;20206;-71
2021/05/15 05:06:20;;;;;;;4.40;1.97;;;;;;;9.50;85.63;98550.13;2037026;79;20731;-71
2021/05/15 05:09:20;;;;;;;2.34;1.44;;;;;;;9.53;85.80;98547.50;2032909;79;20191;-71
2021/05/15 05:12:21;;;;;;;2.24;1.79;;;;;;;9.55;85.69;98543.16;2033389;79;20173;-71
2021/05/15 05:15:21;;;;;;;2.66;1.40;;;;;;;9.55;85.65;98539.72;2031521;77;24419;-72
2021/05/15 05:18:23;;;;;;;1.77;1.33;;;;;;;9.57;85.94;98535.38;2031075;79;20718;-73
2021/05/15 05:21:24;;;;;;;3.15;1.59;;;;;;;9.62;86.06;98531.81;2028216;79;20596;-71
2021/05/15 05:24:24;;;;;;;1.73;1.34;;;;;;;9.67;86.25;98542.09;2030943;79;20194;-71
2021/05/15 05:27:24;;;;;;;4.19;1.50;;;;;;;9.68;86.29;98536.03;2027931;79;20301;-73
2021/05/15 05:30:26;;;;;;;2.76;1.16;;;;;;;9.66;86.28;98528.28;2027546;77;21129;-71
2021/05/15 05:33:26;;;;;;;1.64;1.23;;;;;;;9.77;86.11;98527.28;2033118;79;20279;-72
2021/05/15 05:36:27;;;;;;;1.30;1.16;;;;;;;9.83;85.93;98532.38;2033607;79;20324;-71
2021/05/15 05:39:27;;;;;;;3.56;1.29;;;;;;;9.92;86.13;98535.69;2036116;79;20253;-71
2021/05/15 05:42:28;;;;;;;2.07;1.43;;;;;;;10.01;85.99;98537.28;2034095;79;20166;-71
2021/05/15 05:45:28;;;;;;;1.31;1.20;;;;;;;10.05;85.15;98541.53;2034002;77;25176;-71
2021/05/15 05:48:29;;;;;;;3.93;1.16;;;;;;;10.10;85.08;98534.56;2028341;79;20703;-72
2021/05/15 05:51:29;;;;;;;2.96;1.14;;;;;;;10.19;85.03;98524.00;2028190;79;20603;-72
2021/05/15 05:54:30;;;;;;;1.70;1.30;;;;;;;10.22;84.70;98526.56;2027807;79;20222;-73
2021/05/15 05:57:30;;;;;;;1.49;1.20;;;;;;;10.27;84.15;98532.56;2027897;79;20212;-71
2021/05/15 06:00:32;;;;;;;2.01;1.10;;;;;;;10.26;83.92;98530.00;2027196;77;21917;-71
2021/05/15 06:03:32;;;;;;;1.01;1.01;;;;;;;10.28;83.98;98533.41;2033340;79;20246;-72
2021/05/15 06:06:33;;;;;;;3.73;1.19;;;;;;;10.26;83.93;98528.25;2030105;79;20221;-72
2021/05/15 06:09:34;;;;;;;1.27;1.13;;;;;;;10.27;84.21;98519.59;2034312;79;20181;-72
2021/05/15 06:12:35;;;;;;;1.43;1.10;;;;;;;10.32;84.25;98522.09;2032289;79;20794;-72
2021/05/15 06:15:37;;;;;;;1.73;1.04;;;;;;;10.33;84.22;98530.75;2031536;77;21183;-72
2021/05/15 06:18:37;;;;;;;1.96;1.00;;;;;;;10.31;83.77;98525.56;2029154;79;21327;-73
2021/05/15 06:21:37;;;;;;;1.24;1.11;;;;;;;10.31;83.78;98527.31;2030225;79;21061;-72
2021/05/15 06:24:40;;;;;;;2.87;1.43;;;;;;;10.30;83.83;98529.06;2027967;79;20703;-72
2021/05/15 06:27:41;;;;;;;2.47;1.30;;;;;;;10.22;83.78;98536.09;2030875;79;20155;-70
2021/05/15 06:30:42;;;;;;;2.79;1.40;;;;;;;10.14;84.25;98525.81;2027394;77;28116;-71
2021/05/15 06:33:42;;;;;;;3.16;1.40;;;;;;;10.08;84.87;98520.75;2036609;79;20229;-70
2021/05/15 06:36:42;;;;;;;1.59;1.49;;;;;;;10.06;84.83;98508.69;2032784;79;20222;-69
2021/05/15 06:39:43;;;;;;;4.40;1.59;;;;;;;10.00;84.86;98502.69;2032766;79;20291;-70
2021/05/15 06:42:44;;;;;;;2.50;1.34;;;;;;;10.02;85.69;98491.44;2033011;79;20194;-70
2021/05/15 06:45:44;;;;;;;1.33;1.20;;;;;;;10.08;86.36;98501.75;2032965;76;21422;-69
2021/05/15 06:48:45;;;;;;;1.39;1.10;;;;;;;10.07;86.34;98500.03;2027809;79;20287;-71
2021/05/15 06:51:45;;;;;;;1.37;1.00;;;;;;;10.05;86.19;98507.81;2027388;79;20187;-70
2021/05/15 06:54:45;;;;;;;2.99;0.91;;;;;;;10.00;85.58;98517.41;2027726;79;20186;-74
2021/05/15 06:57:46;;;;;;;1.74;0.83;;;;;;;10.00;85.25;98512.22;2027214;79;20209;-75
2021/05/15 07:00:46;;;;;;;1.56;0.89;;;;;;;10.00;85.55;98517.41;2027313;76;22035;-76
2021/05/15 07:03:46;;;;;;;2.36;0.76;;;;;;;10.06;85.36;98513.88;2033443;79;20214;-74
2021/05/15 07:06:48;;;;;;;0.93;0.64;;;;;;;10.12;84.99;98516.38;2036155;79;20161;-74
2021/05/15 07:09:50;;;;;;;2.65;0.80;;;;;;;10.20;84.81;98515.34;2033305;79;20586;-77
2021/05/15 07:12:50;;;;;;;1.02;0.90;;;;;;;10.24;84.85;98511.88;2032978;79;20223;-73
2021/05/15 07:15:51;;;;;;;0.93;0.60;;;;;;;10.31;85.26;98507.41;2029872;77;21775;-78
2021/05/15 07:18:51;;;;;;;0.89;0.70;;;;;;;10.40;85.26;98507.22;2027889;79;21015;-75
2021/05/15 07:21:52;;;;;;;1.33;1.00;;;;;;;10.48;85.43;98501.94;2027268;79;20207;-76
2021/05/15 07:24:52;;;;;;;0.76;0.76;;;;;;;10.49;85.18;98496.69;2027625;79;20291;-76
2021/05/15 07:27:53;;;;;;;1.17;0.80;;;;;;;10.55;85.40;98491.38;2028092;79;20194;-74
2021/05/15 07:30:53;;;;;;;1.51;0.83;;;;;;;10.58;85.32;98480.94;2027781;77;21796;-72
2021/05/15 07:33:53;;;;;;;1.37;0.69;;;;;;;10.56;84.89;98484.44;2032478;79;20292;-73
2021/05/15 07:36:54;;;;;;;2.64;0.80;;;;;;;10.57;84.76;98478.38;2028973;79;20185;-73
2021/05/15 07:39:54;;;;;;;2.24;0.70;;;;;;;10.48;84.45;98487.22;2032351;79;20223;-74
2021/05/15 07:42:55;;;;;;;0.79;0.66;;;;;;;10.49;85.16;98488.06;2035320;79;20215;-74
2021/05/15 07:45:57;;;;;;;1.00;0.86;;;;;;;10.51;85.09;98481.94;2029911;77;27034;-73
2021/05/15 07:48:57;;;;;;;1.73;0.90;;;;;;;10.58;85.58;98480.94;2027197;79;20259;-72
2021/05/15 07:51:58;;;;;;;2.97;1.06;;;;;;;10.65;85.76;98488.63;2026576;79;20701;-73
2021/05/15 07:54:58;;;;;;;1.37;0.99;;;;;;;10.69;85.85;98483.34;2027273;79;20237;-73
2021/05/15 07:57:58;;;;;;;1.09;0.94;;;;;;;10.72;85.89;98477.22;2027159;79;20196;-73
2021/05/15 08:00:59;;;;;;;3.74;2.70;;;;;;;10.80;86.11;98484.00;2027298;77;23698;-73
2021/05/15 08:04:00;;;;;;;1.31;1.13;;;;;;;10.88;85.55;98484.69;2032085;79;20222;-75
2021/05/15 08:07:00;;;;;;;2.57;1.79;;;;;;;10.99;85.76;98481.03;2032912;79;20302;-76
2021/05/15 08:10:01;;;;;;;2.87;1.44;;;;;;;11.14;85.74;98473.78;2036151;79;20199;-73
2021/05/15 08:13:02;;;;;;;2.63;1.30;;;;;;;11.39;85.41;98463.69;2032513;79;20392;-75
2021/05/15 08:16:02;;;;;;;2.40;0.90;;;;;;;11.60;84.67;98469.28;2032080;77;20551;-75
2021/05/15 08:19:03;;;;;;;3.60;1.00;;;;;;;11.77;84.09;98474.94;2035629;79;20213;-74
2021/05/15 08:22:03;;;;;;;2.43;1.10;;;;;;;12.02;82.91;98468.25;2032683;79;20307;-74
2021/05/15 08:25:06;;;;;;;1.33;0.94;;;;;;;12.19;81.58;98459.16;2032729;79;20217;-74
2021/05/15 08:28:11;;;;;;;3.72;1.08;;;;;;;12.39;81.18;98451.72;2035374;79;20685;-72
2021/05/15 08:31:12;;;;;;;2.67;0.81;;;;;;;12.47;79.75;98462.75;2029493;77;24564;-73
2021/05/15 08:34:12;;;;;;;2.20;1.07;;;;;;;12.69;79.03;98453.47;2026908;79;20221;-73
2021/05/15 08:37:13;;;;;;;2.94;0.90;;;;;;;12.98;78.84;98446.56;2027755;80;20218;-73
2021/05/15 08:40:15;;;;;;;1.84;0.80;;;;;;;13.23;77.18;98446.72;2026527;79;20179;-73
2021/05/15 08:43:15;;;;;;;1.56;0.85;;;;;;;13.44;75.47;98435.63;2030061;79;20194;-73
2021/05/15 08:46:16;;;;;;;2.60;0.80;;;;;;;13.63;75.83;98429.81;2026548;76;20166;-73
2021/05/15 08:49:20;;;;;;;1.29;0.77;;;;;;;13.77;74.74;98435.47;2032154;79;20188;-73
2021/05/15 08:52:21;;;;;;;1.38;0.74;;;;;;;13.78;73.79;98442.38;2032101;79;20228;-74
2021/05/15 08:55:32;;;;;;;2.00;0.91;;;;;;;13.80;74.37;98443.19;2031736;79;20353;-72
2021/05/15 08:58:32;;;;;;;1.64;0.84;;;;;;;13.87;74.74;98437.72;2035554;79;20746;-73
2021/05/15 09:01:33;;;;;;;2.04;1.00;;;;;;;13.95;74.23;98431.38;2033597;77;22514;-73
2021/05/15 09:04:34;;;;;;;2.19;0.80;;;;;;;14.05;73.59;98430.19;2032466;79;20931;-73
2021/05/15 09:07:36;;;;;;;3.99;1.00;;;;;;;13.98;72.49;98428.66;2032445;79;20229;-73
2021/05/15 09:10:42;;;;;;;3.96;1.40;;;;;;;13.97;73.57;98430.44;2031887;79;20679;-73
2021/05/15 09:13:52;;;;;;;3.47;1.05;;;;;;;14.00;73.92;98437.31;2031301;79;20195;-73
2021/05/15 09:16:56;;;;;;;4.71;1.15;;;;;;;14.00;72.70;98437.31;2029389;79;21031;-73
2021/05/15 09:20:00;;;;;;;2.51;1.00;;;;;;;14.00;72.47;98432.94;2032341;79;20162;-72
2021/05/15 09:23:25;;;;;;;5.93;1.48;;;;;;;14.00;69.85;98421.63;2032014;79;20217;-72
2021/05/15 09:26:27;;;;;;;2.44;0.95;;;;;;;13.86;70.43;98420.38;2031885;79;20716;-72
2021/05/15 09:29:43;;;;;;;3.69;0.90;;;;;;;14.01;70.33;98421.63;2031549;79;20751;-72
2021/05/15 09:32:45;;;;;;;6.32;0.80;;;;;;;14.13;69.85;98420.31;2026500;77;23177;-73
2021/05/15 09:35:48;;;;;;;4.97;0.99;;;;;;;14.16;68.81;98408.00;2026962;80;20196;-72
2021/05/15 09:39:02;;;;;;;4.29;0.76;;;;;;;14.15;67.54;98411.53;2027577;79;20170;-73
2021/05/15 09:42:08;;;;;;;5.66;0.90;;;;;;;14.05;64.94;98404.09;2028374;79;20166;-73
2021/05/15 09:45:19;;;;;;;2.54;1.00;;;;;;;13.89;67.01;98407.22;2027557;79;20170;-73
2021/05/15 09:48:37;;;;;;;5.29;0.76;;;;;;;13.79;67.74;98400.59;2034237;79;20213;-72
2021/05/15 09:52:00;;;;;;;5.56;0.86;;;;;;;13.62;68.13;98389.84;2032480;79;20182;-73
2021/05/15 09:55:08;;;;;;;3.42;0.90;;;;;;;13.50;68.33;98398.09;2032931;79;20668;-74
2021/05/15 09:58:11;;;;;;;6.28;1.10;;;;;;;13.40;68.58;98392.31;2033013;79;20192;-73
2021/05/15 10:01:14;;;;;;;1.71;0.79;;;;;;;13.28;68.17;98383.13;2031713;77;47907;-73
2021/05/15 10:04:22;;;;;;;2.69;0.79;;;;;;;13.15;68.57;98386.97;2033284;79;20161;-73
2021/05/15 10:07:27;;;;;;;4.72;0.70;;;;;;;13.17;68.23;98384.31;2032555;79;20195;-73
2021/05/15 10:10:29;;;;;;;3.42;1.49;;;;;;;13.11;68.05;98374.94;2033212;79;20154;-74
2021/05/15 10:13:33;;;;;;;2.04;0.80;;;;;;;13.07;67.85;98373.31;2032710;79;20230;-73
2021/05/15 10:16:36;;;;;;;2.17;0.70;;;;;;;13.07;70.04;98378.53;2031545;76;25178;-73
2021/05/15 10:19:39;;;;;;;5.66;1.10;;;;;;;13.05;71.16;98376.88;2032543;79;20158;-72
2021/05/15 10:22:44;;;;;;;5.28;0.82;;;;;;;12.94;71.25;98370.25;2035715;79;20191;-73
2021/05/15 10:25:47;;;;;;;4.34;0.80;;;;;;;12.86;70.97;98368.75;2031989;79;20178;-73
2021/05/15 10:29:03;;;;;;;2.88;0.88;;;;;;;12.83;71.04;98361.91;2030958;79;20199;-74
2021/05/15 10:32:26;;;;;;;2.11;0.64;;;;;;;12.80;71.67;98358.53;2027315;77;20266;-73
2021/05/15 10:35:38;;;;;;;2.31;0.60;;;;;;;12.76;72.36;98355.19;2026951;79;20272;-73
2021/05/15 10:38:42;;;;;;;4.21;0.81;;;;;;;12.78;72.51;98353.38;2027265;79;21208;-74
2021/05/15 10:41:45;;;;;;;2.47;0.68;;;;;;;12.78;73.53;98344.72;2026971;79;20235;-73
2021/05/15 10:44:48;;;;;;;2.06;0.73;;;;;;;12.72;72.75;98337.91;2026994;79;20947;-73
2021/05/15 10:47:51;;;;;;;1.85;0.56;;;;;;;12.72;71.55;98319.69;2030798;77;23422;-74
2021/05/15 10:51:00;;;;;;;1.86;0.50;;;;;;;12.67;72.38;98326.78;2032298;79;20263;-74
2021/05/15 10:54:05;;;;;;;4.09;0.80;;;;;;;12.69;73.18;98335.41;2031887;79;21289;-76
2021/05/15 10:57:23;;;;;;;3.66;0.40;;;;;;;12.71;70.99;98329.25;2033078;79;20729;-75
2021/05/15 11:00:25;;;;;;;2.18;0.57;;;;;;;12.66;69.32;98319.88;2030752;77;20512;-75
2021/05/15 11:03:35;;;;;;;3.67;0.94;;;;;;;12.75;69.72;98316.13;2026796;79;20284;-77
2021/05/15 11:06:38;;;;;;;1.67;0.60;;;;;;;12.91;70.11;98315.59;2026543;79;20174;-75
2021/05/15 11:09:55;;;;;;;1.71;0.60;;;;;;;12.95;69.53;98312.03;2027188;79;20166;-76
2021/05/15 11:13:08;;;;;;;1.39;0.43;;;;;;;13.00;68.64;98307.53;2027072;79;20154;-76
2021/05/15 11:16:12;;;;;;;3.50;0.51;;;;;;;13.05;68.18;98299.53;2029052;76;22554;-76
2021/05/15 11:19:15;;;;;;;2.16;0.51;;;;;;;13.10;67.54;98294.19;2032074;79;20640;-75
2021/05/15 11:22:20;;;;;;;3.50;0.70;;;;;;;13.09;66.34;98292.47;2032333;79;20275;-75
2021/05/15 11:25:28;;;;;;;3.81;0.98;;;;;;;13.10;67.12;98295.03;2032102;79;20185;-76
2021/05/15 11:28:32;;;;;;;3.15;0.70;;;;;;;13.17;66.90;98290.50;2032250;79;20191;-75
2021/05/15 11:31:38;;;;;;;1.54;0.50;;;;;;;13.54;67.31;98282.31;2028177;77;22881;-76
2021/05/15 11:34:43;;;;;;;5.67;0.50;;;;;;;13.91;64.41;98269.69;2027281;79;20170;-76
2021/05/15 11:37:46;;;;;;;4.16;0.57;;;;;;;14.04;63.52;98254.47;2027511;79;20228;-76
2021/05/15 11:40:48;;;;;;;1.71;0.35;;;;;;;14.12;63.94;98244.56;2027793;79;20182;-76
2021/05/15 11:43:51;;;;;;;1.31;0.40;;;;;;;14.18;63.97;98253.94;2027065;79;21062;-79
2021/05/15 11:46:54;;;;;;;2.01;0.40;;;;;;;13.99;61.24;98247.69;2029111;76;38062;-75
2021/05/15 11:50:00;;;;;;;3.39;0.50;;;;;;;13.96;62.87;98243.44;2032476;79;20173;-75
2021/05/15 11:53:04;;;;;;;4.60;0.91;;;;;;;13.89;62.80;98241.97;2030857;79;20518;-75
2021/05/15 11:56:11;;;;;;;1.96;0.44;;;;;;;13.83;62.39;98235.22;2027530;79;20218;-75
2021/05/15 11:59:18;;;;;;;2.90;0.74;;;;;;;13.84;62.66;98228.25;2031444;79;20215;-75
2021/05/15 12:02:23;;;;;;;2.21;0.40;;;;;;;13.90;62.91;98231.47;2031921;79;22898;-75
2021/05/15 12:05:26;;;;;;;1.80;0.35;;;;;;;13.85;60.80;98225.56;2033102;79;20213;-75
2021/05/15 12:08:30;;;;;;;0.90;0.34;;;;;;;13.86;62.26;98216.84;2032828;79;20174;-76
2021/05/15 12:11:33;;;;;;;4.89;0.40;;;;;;;13.90;62.73;98212.34;2032305;79;20694;-75
2021/05/15 12:14:42;;;;;;;1.90;0.40;;;;;;;13.79;61.76;98210.13;2032537;79;20213;-75
2021/05/15 12:17:45;;;;;;;1.96;0.50;;;;;;;13.70;62.34;98210.47;2026426;77;21712;-75
2021/05/15 12:20:49;;;;;;;2.53;0.40;;;;;;;13.70;63.25;98212.22;2027143;79;20960;-76
2021/05/15 12:23:59;;;;;;;2.19;0.30;;;;;;;13.57;62.77;98202.22;2026944;79;20202;-75
2021/05/15 12:27:20;;;;;;;1.83;0.30;;;;;;;13.50;62.82;98215.53;2027167;79;20170;-75
2021/05/15 12:30:26;;;;;;;1.11;0.35;;;;;;;13.35;62.43;98208.25;2026493;76;26905;-74
2021/05/15 12:33:29;;;;;;;3.04;0.39;;;;;;;13.28;62.42;98204.97;2032400;79;20174;-75
2021/05/15 12:36:34;;;;;;;2.53;0.47;;;;;;;13.27;62.07;98200.66;2032398;79;20185;-75
2021/05/15 12:39:37;;;;;;;0.81;0.40;;;;;;;13.21;63.58;98199.13;2032094;79;21227;-75
2021/05/15 12:42:40;;;;;;;3.00;0.60;;;;;;;13.07;62.88;98188.28;2031683;79;20174;-75
2021/05/15 12:45:43;;;;;;;4.44;0.57;;;;;;;12.99;64.16;98180.75;2029599;77;20231;-75
2021/05/15 12:48:59;;;;;;;1.23;0.32;;;;;;;12.97;64.73;98174.72;2024869;79;20174;-75
2021/05/15 12:52:15;;;;;;;3.39;0.40;;;;;;;12.95;63.57;98176.53;2027141;79;21091;-78
2021/05/15 12:55:18;;;;;;;2.17;0.49;;;;;;;13.02;64.41;98166.75;2026370;79;20170;-75
2021/05/15 12:58:26;;;;;;;0.90;0.36;;;;;;;13.28;65.01;98166.75;2026556;80;20155;-74
2021/05/15 13:01:29;;;;;;;6.63;0.75;;;;;;;13.39;63.98;98166.38;2027521;77;24136;-76
2021/05/15 13:04:33;;;;;;;5.24;0.40;;;;;;;13.40;62.59;98159.38;2032730;79;20158;-76
2021/05/15 13:07:38;;;;;;;1.49;0.40;;;;;;;13.45;64.54;98160.06;2031913;79;20215;-78
2021/05/15 13:10:42;;;;;;;4.06;0.68;;;;;;;13.53;62.71;98158.91;2032508;79;20728;-76
2021/05/15 13:13:46;;;;;;;1.80;0.47;;;;;;;13.64;63.03;98157.66;2033354;79;20234;-76
2021/05/15 13:16:53;;;;;;;1.73;0.39;;;;;;;13.59;62.35;98158.66;2029915;77;22303;-73
2021/05/15 13:19:57;;;;;;;1.63;0.70;;;;;;;13.63;62.29;98150.72;2028343;79;20300;-73
2021/05/15 13:23:02;;;;;;;5.88;0.50;;;;;;;13.63;62.12;98148.97;2027110;79;20178;-76
2021/05/15 13:26:07;;;;;;;2.75;0.50;;;;;;;13.63;62.32;98137.69;2026816;79;20489;-76
2021/05/15 13:29:09;;;;;;;2.17;0.45;;;;;;;14.16;63.58;98133.91;2027758;79;20290;-76
2021/05/15 13:32:12;;;;;;;2.89;0.40;;;;;;;14.79;60.09;98126.19;2029959;76;48313;-75
2021/05/15 13:35:19;;;;;;;0.71;0.30;;;;;;;15.07;59.82;98129.31;2033422;79;20266;-77
2021/05/15 13:38:21;;;;;;;1.39;0.40;;;;;;;15.03;58.34;98119.91;2033465;79;20712;-77
2021/05/15 13:41:24;;;;;;;1.83;0.40;;;;;;;14.79;58.70;98121.81;2032912;79;20708;-77
2021/05/15 13:44:27;;;;;;;1.98;0.40;;;;;;;14.51;59.66;98126.47;2033041;79;20267;-77
2021/05/15 13:47:30;;;;;;;1.92;0.35;;;;;;;14.42;60.78;98118.97;2027289;77;38304;-76
2021/05/15 13:50:32;;;;;;;2.03;0.40;;;;;;;14.13;60.71;98122.72;2028316;79;20174;-76
2021/05/15 13:53:36;;;;;;;3.80;0.55;;;;;;;13.99;61.54;98107.59;2028402;79;20574;-76
2021/05/15 13:56:39;;;;;;;0.84;0.20;;;;;;;14.12;62.84;98113.19;2028298;79;20207;-77
2021/05/15 13:59:46;;;;;;;3.10;0.40;;;;;;;14.12;62.32;98115.81;2028287;79;20187;-76
2021/05/15 14:02:48;;;;;;;2.11;0.30;;;;;;;14.02;62.25;98094.47;2031221;76;96724;-72
2021/05/15 14:05:51;;;;;;;1.10;0.30;;;;;;;14.20;62.86;98088.50;2032762;79;20181;-73
2021/05/15 14:08:55;;;;;;;2.24;0.30;;;;;;;14.19;62.20;98083.34;2031860;79;20239;-73
2021/05/15 14:11:58;;;;;;;2.99;0.40;;;;;;;14.24;61.59;98086.63;2032700;79;20311;-71
2021/05/15 14:15:05;;;;;;;0.81;0.40;;;;;;;14.23;61.40;98082.31;2032140;79;20213;-74
2021/05/15 14:18:08;;;;;;;2.29;0.45;;;;;;;14.24;62.30;98070.09;2026683;77;27149;-71
2021/05/15 14:21:12;;;;;;;0.73;0.30;;;;;;;14.15;61.88;98076.53;2027249;79;20206;-71
2021/05/15 14:24:15;;;;;;;2.39;0.40;;;;;;;14.19;62.29;98071.16;2027520;79;20200;-71
2021/05/15 14:27:18;;;;;;;1.08;0.30;;;;;;;14.12;62.85;98074.91;2026811;79;20202;-71